Time;durP1;ratioP1;P1;durP2;ratioP2;P2;SDS_P1;SDS_P2;PMS_P1;PMS_P2;Temp;Humidity;BMP_temperature;BMP_pressure;BME280_temperature;BME280_humidity;BME280_pressure;Samples;Min_cycle;Max_cycle;Signal;HPM_P1;HPM_P2
2023/12/11 00:00:48;;;;;;;12.70;2.73;;;;;;;;;;4980414;28;20221;-80
2023/12/11 00:03:14;;;;;;;17.43;3.50;;;;;;;;;;4980522;28;20408;-79
2023/12/11 00:05:41;;;;;;;13.50;2.83;;;;;;;;;;4980552;28;20427;-79
2023/12/11 00:08:07;;;;;;;15.27;3.63;;;;;;;;;;4980792;28;20240;-79
2023/12/11 00:10:33;;;;;;;14.25;4.13;;;;;;;;;;4980754;28;20263;-79
2023/12/11 00:12:59;;;;;;;15.30;4.25;;;;;;;;;;4980567;28;20248;-80
2023/12/11 00:15:25;;;;;;;16.27;3.53;;;;;;;;;;4980091;28;20253;-80
2023/12/11 00:17:51;;;;;;;19.07;3.90;;;;;;;;;;4981108;28;20426;-80
2023/12/11 00:20:17;;;;;;;12.20;3.53;;;;;;;;;;4980491;28;20794;-80
2023/12/11 00:22:43;;;;;;;16.53;3.20;;;;;;;;;;4981370;28;20445;-79
2023/12/11 00:25:10;;;;;;;17.67;4.22;;;;;;;;;;4981402;28;20411;-79
2023/12/11 00:27:36;;;;;;;17.48;3.67;;;;;;;;;;4980795;28;20219;-80
2023/12/11 00:30:02;;;;;;;16.27;4.15;;;;;;;;;;4981264;28;20184;-80
2023/12/11 00:32:28;;;;;;;19.17;4.72;;;;;;;;;;4980386;28;20202;-79
2023/12/11 00:34:54;;;;;;;12.63;3.58;;;;;;;;;;4980959;28;20223;-79
2023/12/11 00:37:20;;;;;;;14.87;4.97;;;;;;;;;;4980360;28;20173;-80
2023/12/11 00:39:46;;;;;;;17.90;3.90;;;;;;;;;;4980947;28;20404;-79
2023/12/11 00:42:12;;;;;;;10.50;4.30;;;;;;;;;;4980068;28;20415;-79
2023/12/11 00:44:38;;;;;;;16.90;3.43;;;;;;;;;;4980424;28;20419;-79
2023/12/11 00:47:05;;;;;;;20.27;6.10;;;;;;;;;;4980556;28;20404;-79
2023/12/11 00:49:31;;;;;;;13.70;4.32;;;;;;;;;;4980078;28;20179;-79
2023/12/11 00:51:57;;;;;;;18.83;4.80;;;;;;;;;;4979402;28;20655;-79
2023/12/11 00:54:23;;;;;;;10.65;3.67;;;;;;;;;;4980104;28;20208;-79
2023/12/11 00:56:49;;;;;;;20.13;3.83;;;;;;;;;;4980983;28;20263;-79
2023/12/11 00:59:15;;;;;;;18.85;4.85;;;;;;;;;;4980396;28;20404;-79
2023/12/11 01:01:42;;;;;;;16.40;3.80;;;;;;;;;;4980467;28;20183;-79
2023/12/11 01:04:08;;;;;;;20.70;4.45;;;;;;;;;;4980364;28;20416;-79
2023/12/11 01:06:34;;;;;;;19.40;3.95;;;;;;;;;;4980284;28;20591;-79
2023/12/11 01:09:00;;;;;;;15.37;4.60;;;;;;;;;;4980484;28;20224;-79
2023/12/11 01:11:26;;;;;;;10.07;3.35;;;;;;;;;;4980132;28;20554;-79
2023/12/11 01:13:52;;;;;;;16.47;3.33;;;;;;;;;;4980288;28;20638;-79
2023/12/11 01:16:18;;;;;;;15.23;3.20;;;;;;;;;;4980254;28;20420;-79
2023/12/11 01:18:44;;;;;;;20.35;3.05;;;;;;;;;;4980285;28;20188;-79
2023/12/11 01:21:09;;;;;;;17.03;4.20;;;;;;;;;;4979994;28;20243;-79
2023/12/11 01:23:35;;;;;;;14.00;3.40;;;;;;;;;;4995476;28;20426;-79
2023/12/11 01:26:01;;;;;;;18.05;5.82;;;;;;;;;;4980064;28;20412;-79
2023/12/11 01:28:27;;;;;;;12.03;3.70;;;;;;;;;;4980145;28;20538;-79
2023/12/11 01:30:53;;;;;;;18.30;4.90;;;;;;;;;;4980579;28;20408;-79
2023/12/11 01:33:19;;;;;;;13.20;2.70;;;;;;;;;;4980220;28;21010;-79
2023/12/11 01:35:45;;;;;;;11.13;2.80;;;;;;;;;;4979348;28;20403;-79
2023/12/11 01:38:11;;;;;;;19.13;4.30;;;;;;;;;;4979789;28;20935;-79
2023/12/11 01:40:37;;;;;;;17.48;4.45;;;;;;;;;;4979553;28;20908;-79
2023/12/11 01:43:13;;;;;;;16.85;4.10;;;;;;;;;;4979877;28;20189;-79
2023/12/11 01:45:40;;;;;;;10.80;3.15;;;;;;;;;;4979704;28;20176;-79
2023/12/11 01:48:06;;;;;;;15.60;3.17;;;;;;;;;;4979631;28;20185;-79
2023/12/11 01:50:32;;;;;;;13.40;3.20;;;;;;;;;;4979094;28;20184;-79
2023/12/11 01:52:59;;;;;;;16.63;4.25;;;;;;;;;;4979090;28;20184;-79
2023/12/11 01:55:25;;;;;;;17.45;3.50;;;;;;;;;;4979631;28;20192;-79
2023/12/11 01:57:51;;;;;;;16.42;2.72;;;;;;;;;;4979554;28;20215;-79
2023/12/11 02:00:17;;;;;;;16.98;3.40;;;;;;;;;;4979758;28;20637;-79
2023/12/11 02:02:43;;;;;;;16.70;3.70;;;;;;;;;;4979249;28;20190;-79
2023/12/11 02:05:09;;;;;;;16.52;4.15;;;;;;;;;;4979845;28;20184;-79
2023/12/11 02:07:35;;;;;;;18.13;2.80;;;;;;;;;;4979358;28;20637;-79
2023/12/11 02:10:01;;;;;;;20.02;3.90;;;;;;;;;;4979075;28;20414;-79
2023/12/11 02:12:27;;;;;;;8.75;2.95;;;;;;;;;;4979086;28;20239;-79
2023/12/11 02:14:53;;;;;;;11.33;3.10;;;;;;;;;;4978903;28;20302;-79
2023/12/11 02:17:19;;;;;;;10.40;3.30;;;;;;;;;;4979490;28;20462;-79
2023/12/11 02:19:45;;;;;;;21.48;2.97;;;;;;;;;;4994287;28;20176;-79
2023/12/11 02:22:11;;;;;;;11.70;3.67;;;;;;;;;;4979195;28;20184;-79
2023/12/11 02:24:45;;;;;;;19.40;3.92;;;;;;;;;;4979046;28;20419;-79
2023/12/11 02:27:11;;;;;;;20.27;3.45;;;;;;;;;;4978883;28;20184;-79
2023/12/11 02:29:37;;;;;;;14.75;3.53;;;;;;;;;;4979262;28;20580;-79
2023/12/11 02:32:03;;;;;;;8.20;2.78;;;;;;;;;;4978863;28;20740;-79
2023/12/11 02:34:29;;;;;;;15.70;3.00;;;;;;;;;;4978240;28;20212;-79
2023/12/11 02:36:55;;;;;;;11.57;3.03;;;;;;;;;;4978432;28;20211;-79
2023/12/11 02:39:21;;;;;;;9.77;2.50;;;;;;;;;;4978672;28;20407;-79
2023/12/11 02:41:47;;;;;;;13.57;2.37;;;;;;;;;;4978189;28;20588;-79
2023/12/11 02:44:13;;;;;;;26.43;4.37;;;;;;;;;;4978820;28;20443;-79
2023/12/11 02:46:39;;;;;;;13.45;4.35;;;;;;;;;;4978323;28;20499;-79
2023/12/11 02:49:05;;;;;;;27.73;3.83;;;;;;;;;;4978084;28;20657;-79
2023/12/11 02:51:31;;;;;;;17.77;3.05;;;;;;;;;;4977944;28;20211;-80
2023/12/11 02:53:57;;;;;;;9.27;2.97;;;;;;;;;;4978410;28;20247;-79
2023/12/11 02:56:23;;;;;;;11.90;3.60;;;;;;;;;;4978568;28;20642;-79
2023/12/11 02:58:49;;;;;;;10.65;2.60;;;;;;;;;;4978124;28;20442;-80
2023/12/11 03:01:15;;;;;;;10.03;2.60;;;;;;;;;;4978208;28;20552;-79
2023/12/11 03:03:41;;;;;;;6.78;2.75;;;;;;;;;;4978162;28;20423;-79
2023/12/11 03:06:18;;;;;;;13.70;2.75;;;;;;;;;;4977695;28;20187;-79
2023/12/11 03:08:44;;;;;;;20.90;3.53;;;;;;;;;;4978532;28;20620;-79
2023/12/11 03:11:10;;;;;;;10.47;2.80;;;;;;;;;;4978474;28;20203;-79
2023/12/11 03:13:36;;;;;;;15.38;3.65;;;;;;;;;;4977087;28;20475;-79
2023/12/11 03:16:02;;;;;;;14.93;2.67;;;;;;;;;;4977849;28;20180;-79
2023/12/11 03:18:28;;;;;;;19.15;3.72;;;;;;;;;;4977894;28;20202;-80
2023/12/11 03:20:54;;;;;;;17.90;3.67;;;;;;;;;;4978413;28;20255;-80
2023/12/11 03:23:20;;;;;;;18.88;2.72;;;;;;;;;;4978235;28;20762;-81
2023/12/11 03:25:46;;;;;;;15.53;3.73;;;;;;;;;;4976701;28;20220;-79
2023/12/11 03:28:12;;;;;;;15.73;3.47;;;;;;;;;;4978219;28;20448;-79
2023/12/11 03:30:38;;;;;;;12.30;2.33;;;;;;;;;;4977298;28;20184;-79
2023/12/11 03:33:04;;;;;;;14.32;2.55;;;;;;;;;;4977993;28;20408;-79
2023/12/11 03:35:30;;;;;;;24.77;3.07;;;;;;;;;;4977833;28;20179;-80
2023/12/11 03:37:56;;;;;;;14.03;3.30;;;;;;;;;;4977824;28;20427;-79
2023/12/11 03:40:22;;;;;;;14.30;3.30;;;;;;;;;;4977879;28;20474;-79
2023/12/11 03:42:48;;;;;;;12.90;2.80;;;;;;;;;;4977937;28;20423;-79
2023/12/11 03:45:14;;;;;;;13.93;4.20;;;;;;;;;;4977878;28;20754;-79
2023/12/11 03:47:40;;;;;;;16.67;3.00;;;;;;;;;;4977438;28;20430;-80
2023/12/11 03:50:06;;;;;;;18.70;3.15;;;;;;;;;;4992596;28;20169;-79
2023/12/11 03:52:32;;;;;;;15.80;4.22;;;;;;;;;;4978025;28;20180;-80
2023/12/11 03:54:58;;;;;;;14.80;3.10;;;;;;;;;;4978074;28;20227;-80
2023/12/11 03:57:24;;;;;;;14.38;3.40;;;;;;;;;;4977445;28;20458;-80
2023/12/11 03:59:50;;;;;;;12.23;2.80;;;;;;;;;;4977606;28;20180;-79
2023/12/11 04:02:16;;;;;;;9.33;2.30;;;;;;;;;;4977708;28;20400;-80
2023/12/11 04:04:42;;;;;;;24.63;3.73;;;;;;;;;;4977852;28;20761;-79
2023/12/11 04:07:08;;;;;;;15.50;3.03;;;;;;;;;;4977461;28;20580;-79
2023/12/11 04:09:34;;;;;;;9.93;2.75;;;;;;;;;;4977285;28;20412;-79
2023/12/11 04:12:00;;;;;;;12.30;2.33;;;;;;;;;;4977709;28;20176;-79
2023/12/11 04:14:26;;;;;;;14.75;3.38;;;;;;;;;;4977652;28;20259;-79
2023/12/11 04:16:52;;;;;;;15.05;2.22;;;;;;;;;;4977340;28;20184;-79
2023/12/11 04:19:18;;;;;;;9.83;2.83;;;;;;;;;;4977653;28;20625;-79
2023/12/11 04:21:44;;;;;;;13.25;4.03;;;;;;;;;;4977494;28;20412;-79
2023/12/11 04:24:10;;;;;;;15.10;3.00;;;;;;;;;;4978016;28;20184;-79
2023/12/11 04:26:36;;;;;;;7.73;1.90;;;;;;;;;;4980178;28;20443;-80
2023/12/11 04:29:02;;;;;;;13.07;2.43;;;;;;;;;;4980808;28;20927;-79
2023/12/11 04:31:28;;;;;;;12.60;2.97;;;;;;;;;;4980763;28;20458;-79
2023/12/11 04:33:54;;;;;;;12.40;2.88;;;;;;;;;;4980582;28;20502;-79
2023/12/11 04:36:20;;;;;;;8.93;3.08;;;;;;;;;;4980897;28;20210;-79
2023/12/11 04:38:46;;;;;;;10.25;2.65;;;;;;;;;;4980780;28;20643;-79
2023/12/11 04:41:12;;;;;;;12.37;2.57;;;;;;;;;;4981009;28;20196;-79
2023/12/11 04:43:38;;;;;;;8.50;2.10;;;;;;;;;;4981201;28;20545;-79
2023/12/11 04:46:04;;;;;;;9.63;3.00;;;;;;;;;;4981289;28;20567;-79
2023/12/11 04:48:30;;;;;;;16.60;3.47;;;;;;;;;;4980614;28;20191;-79
2023/12/11 04:50:56;;;;;;;13.10;2.80;;;;;;;;;;4981260;28;20184;-79
2023/12/11 04:53:22;;;;;;;18.95;2.78;;;;;;;;;;4980889;28;20217;-79
2023/12/11 04:55:48;;;;;;;12.45;2.80;;;;;;;;;;4980517;28;20180;-78
2023/12/11 04:58:14;;;;;;;11.33;2.90;;;;;;;;;;4980413;28;20192;-78
2023/12/11 05:00:40;;;;;;;19.40;4.00;;;;;;;;;;4980988;28;21011;-78
2023/12/11 05:03:06;;;;;;;14.57;2.87;;;;;;;;;;4980436;28;20263;-79
2023/12/11 05:05:34;;;;;;;11.73;2.78;;;;;;;;;;4981128;28;20588;-78
2023/12/11 05:08:00;;;;;;;12.50;2.60;;;;;;;;;;4980906;28;20242;-78
2023/12/11 05:10:26;;;;;;;13.27;2.55;;;;;;;;;;4981018;28;20280;-78
2023/12/11 05:12:52;;;;;;;7.40;1.87;;;;;;;;;;4980681;28;20195;-78
2023/12/11 05:15:18;;;;;;;13.33;2.97;;;;;;;;;;4995826;28;20562;-78
2023/12/11 05:17:45;;;;;;;11.68;2.65;;;;;;;;;;4980744;28;20427;-78
2023/12/11 05:20:12;;;;;;;12.35;3.05;;;;;;;;;;4980319;28;20241;-80
2023/12/11 05:22:38;;;;;;;11.50;3.10;;;;;;;;;;4980222;28;20187;-80
2023/12/11 05:25:05;;;;;;;13.45;2.75;;;;;;;;;;4980307;28;20247;-80
2023/12/11 05:27:31;;;;;;;11.32;2.75;;;;;;;;;;4979770;28;20577;-80
2023/12/11 05:29:57;;;;;;;17.85;3.65;;;;;;;;;;4979855;28;20190;-80
2023/12/11 05:32:23;;;;;;;5.70;1.57;;;;;;;;;;4979334;28;20220;-81
2023/12/11 05:34:49;;;;;;;16.30;2.93;;;;;;;;;;4978184;28;20467;-80
2023/12/11 05:37:15;;;;;;;10.60;2.93;;;;;;;;;;4978655;28;20465;-80
2023/12/11 05:39:41;;;;;;;7.38;2.55;;;;;;;;;;4979351;28;20411;-80
2023/12/11 05:42:07;;;;;;;24.93;2.70;;;;;;;;;;4980327;28;20606;-80
2023/12/11 05:44:33;;;;;;;7.72;1.98;;;;;;;;;;4979705;28;20487;-79
2023/12/11 05:46:59;;;;;;;12.53;3.20;;;;;;;;;;4979390;28;20259;-78
2023/12/11 05:49:25;;;;;;;12.23;3.10;;;;;;;;;;4979978;28;20414;-79
2023/12/11 05:51:53;;;;;;;13.52;3.00;;;;;;;;;;4979648;28;20403;-79
2023/12/11 05:54:19;;;;;;;9.75;2.75;;;;;;;;;;4979620;28;20206;-78
2023/12/11 05:56:45;;;;;;;9.18;2.08;;;;;;;;;;4979172;28;20278;-78
2023/12/11 05:59:11;;;;;;;11.10;3.03;;;;;;;;;;4979378;28;20172;-79
2023/12/11 06:01:37;;;;;;;11.23;3.07;;;;;;;;;;4979115;28;20624;-80
2023/12/11 06:04:04;;;;;;;8.20;2.27;;;;;;;;;;4979688;28;20407;-79
2023/12/11 06:06:30;;;;;;;12.30;2.53;;;;;;;;;;4979441;28;20408;-79
2023/12/11 06:08:56;;;;;;;14.60;2.72;;;;;;;;;;4978839;28;20239;-79
2023/12/11 06:11:22;;;;;;;9.27;2.60;;;;;;;;;;4979553;28;20176;-78
2023/12/11 06:13:48;;;;;;;15.32;2.40;;;;;;;;;;4979248;28;20474;-79
2023/12/11 06:16:14;;;;;;;9.73;2.60;;;;;;;;;;4979902;28;20599;-79
2023/12/11 06:18:41;;;;;;;7.68;2.08;;;;;;;;;;4979276;28;20483;-79
2023/12/11 06:21:07;;;;;;;12.35;2.40;;;;;;;;;;4979735;28;20196;-79
2023/12/11 06:23:33;;;;;;;11.35;2.42;;;;;;;;;;4979341;28;20184;-78
2023/12/11 06:25:59;;;;;;;10.35;2.42;;;;;;;;;;4978761;28;20207;-79
2023/12/11 06:28:24;;;;;;;10.67;2.50;;;;;;;;;;4979403;28;20180;-78
2023/12/11 06:30:51;;;;;;;10.43;2.30;;;;;;;;;;4978665;28;20412;-78
2023/12/11 06:33:17;;;;;;;6.57;2.10;;;;;;;;;;4979141;28;20419;-79
2023/12/11 06:35:43;;;;;;;11.90;2.97;;;;;;;;;;4993843;28;20180;-79
2023/12/11 06:38:09;;;;;;;10.80;2.37;;;;;;;;;;4978781;28;20183;-78
2023/12/11 06:40:35;;;;;;;9.87;1.93;;;;;;;;;;4979006;28;20411;-79
2023/12/11 06:43:01;;;;;;;12.10;1.77;;;;;;;;;;4978288;28;20821;-81
2023/12/11 06:45:27;;;;;;;12.27;2.65;;;;;;;;;;4977516;28;20407;-81
2023/12/11 06:47:53;;;;;;;8.07;2.10;;;;;;;;;;4977620;28;20207;-80
2023/12/11 06:50:19;;;;;;;6.50;2.20;;;;;;;;;;4978351;28;20502;-80
2023/12/11 06:52:45;;;;;;;14.88;2.50;;;;;;;;;;4977685;28;20498;-81
2023/12/11 06:55:11;;;;;;;12.48;3.20;;;;;;;;;;4977262;28;20296;-81
2023/12/11 06:57:38;;;;;;;12.37;3.23;;;;;;;;;;4977969;28;20286;-81
2023/12/11 07:00:05;;;;;;;9.57;2.88;;;;;;;;;;4977297;28;20801;-81
2023/12/11 07:02:31;;;;;;;11.25;2.30;;;;;;;;;;4977150;28;20184;-80
2023/12/11 07:04:57;;;;;;;20.70;2.90;;;;;;;;;;4977219;28;20274;-80
2023/12/11 07:07:23;;;;;;;8.97;3.37;;;;;;;;;;4976975;28;20263;-80
2023/12/11 07:09:50;;;;;;;11.15;2.80;;;;;;;;;;4977320;28;20471;-80
2023/12/11 07:12:16;;;;;;;15.23;3.35;;;;;;;;;;4977544;28;20211;-80
2023/12/11 07:14:43;;;;;;;11.77;2.28;;;;;;;;;;4977132;28;20719;-81
2023/12/11 07:17:09;;;;;;;13.23;2.83;;;;;;;;;;4977288;28;20196;-79
2023/12/11 07:19:35;;;;;;;10.47;2.60;;;;;;;;;;4976966;28;20223;-81
2023/12/11 07:22:01;;;;;;;19.67;3.40;;;;;;;;;;4976665;28;21328;-81
2023/12/11 07:24:27;;;;;;;12.10;2.70;;;;;;;;;;4977394;28;20411;-81
2023/12/11 07:26:53;;;;;;;7.95;1.98;;;;;;;;;;4976865;28;20419;-80
2023/12/11 07:29:19;;;;;;;15.10;3.50;;;;;;;;;;4977046;28;20173;-81
2023/12/11 07:31:45;;;;;;;11.30;2.72;;;;;;;;;;4977402;28;20408;-80
2023/12/11 07:34:11;;;;;;;19.57;3.50;;;;;;;;;;4978008;28;20212;-81
2023/12/11 07:36:37;;;;;;;7.83;2.20;;;;;;;;;;4977016;28;20911;-80
2023/12/11 07:39:03;;;;;;;12.63;3.30;;;;;;;;;;4976698;28;20418;-81
2023/12/11 07:41:29;;;;;;;11.65;2.28;;;;;;;;;;4977304;28;20408;-81
2023/12/11 07:43:55;;;;;;;10.77;2.50;;;;;;;;;;4992184;28;20188;-80
2023/12/11 07:46:22;;;;;;;10.67;2.60;;;;;;;;;;4976888;28;20438;-80
2023/12/11 07:48:48;;;;;;;14.25;3.05;;;;;;;;;;4977480;28;20423;-80
2023/12/11 07:51:18;;;;;;;5.70;2.13;;;;;;;;;;4976963;28;20176;-80
2023/12/11 07:53:44;;;;;;;8.07;2.03;;;;;;;;;;4976261;28;20216;-83
2023/12/11 07:56:17;;;;;;;11.50;3.55;;;;;;;;;;4976439;28;20184;-85
2023/12/11 07:58:43;;;;;;;9.20;2.78;;;;;;;;;;4976456;28;20168;-81
2023/12/11 08:01:10;;;;;;;15.70;3.20;;;;;;;;;;4979632;28;20185;-80
2023/12/11 08:03:36;;;;;;;22.10;3.55;;;;;;;;;;4981449;28;20423;-80
2023/12/11 08:06:02;;;;;;;14.43;2.70;;;;;;;;;;4980681;28;20271;-80
2023/12/11 08:08:28;;;;;;;20.88;2.75;;;;;;;;;;4980576;28;20785;-81
2023/12/11 08:10:54;;;;;;;11.88;2.50;;;;;;;;;;4980636;28;20183;-80
2023/12/11 08:13:20;;;;;;;9.02;2.10;;;;;;;;;;4979684;28;20242;-80
2023/12/11 08:15:46;;;;;;;12.23;3.03;;;;;;;;;;4980833;28;20581;-81
2023/12/11 08:18:12;;;;;;;16.53;3.33;;;;;;;;;;4980223;28;20474;-80
2023/12/11 08:20:38;;;;;;;15.93;3.40;;;;;;;;;;4980627;28;20426;-80
2023/12/11 08:23:04;;;;;;;16.73;3.33;;;;;;;;;;4980133;28;20415;-80
2023/12/11 08:25:30;;;;;;;14.47;2.73;;;;;;;;;;4980777;28;20444;-81
2023/12/11 08:27:56;;;;;;;10.80;2.27;;;;;;;;;;4980387;28;20438;-80
2023/12/11 08:30:22;;;;;;;9.47;2.50;;;;;;;;;;4980389;28;20416;-80
2023/12/11 08:32:48;;;;;;;15.23;2.60;;;;;;;;;;4980027;28;20891;-82
2023/12/11 08:35:15;;;;;;;7.32;1.83;;;;;;;;;;4980328;28;20459;-81
2023/12/11 08:37:41;;;;;;;11.23;2.85;;;;;;;;;;4979902;28;20172;-81
2023/12/11 08:40:07;;;;;;;9.27;2.90;;;;;;;;;;4980197;28;20180;-81
2023/12/11 08:42:33;;;;;;;10.52;2.80;;;;;;;;;;4980601;28;20412;-81
2023/12/11 08:44:59;;;;;;;7.63;2.60;;;;;;;;;;4980101;28;20184;-81
2023/12/11 08:47:25;;;;;;;21.10;4.13;;;;;;;;;;4980286;28;20199;-82
2023/12/11 08:49:51;;;;;;;12.80;2.70;;;;;;;;;;4979342;28;20550;-81
2023/12/11 08:52:17;;;;;;;10.23;2.03;;;;;;;;;;4979863;28;20408;-81
2023/12/11 08:54:43;;;;;;;9.43;3.03;;;;;;;;;;4979754;28;20482;-80
2023/12/11 08:57:09;;;;;;;20.90;2.80;;;;;;;;;;4979493;28;20606;-82
2023/12/11 08:59:37;;;;;;;13.83;2.50;;;;;;;;;;4979711;28;20209;-80
2023/12/11 09:02:03;;;;;;;8.10;2.42;;;;;;;;;;4979410;28;20467;-80
2023/12/11 09:04:29;;;;;;;9.35;2.95;;;;;;;;;;4979580;28;20184;-81
2023/12/11 09:06:55;;;;;;;10.30;2.27;;;;;;;;;;4979517;28;20243;-82
2023/12/11 09:09:21;;;;;;;17.03;2.93;;;;;;;;;;4979662;28;20453;-81
2023/12/11 09:11:48;;;;;;;16.00;3.47;;;;;;;;;;4978920;28;20407;-83
2023/12/11 09:14:14;;;;;;;22.52;3.45;;;;;;;;;;4979570;28;20830;-81
2023/12/11 09:16:40;;;;;;;24.63;2.70;;;;;;;;;;4979489;28;20219;-82
2023/12/11 09:19:08;;;;;;;8.27;2.20;;;;;;;;;;4978945;28;20641;-82
2023/12/11 09:21:34;;;;;;;6.75;2.03;;;;;;;;;;4979721;28;20411;-81
2023/12/11 09:24:00;;;;;;;10.10;3.43;;;;;;;;;;4979291;28;20180;-81
2023/12/11 09:26:27;;;;;;;9.63;2.63;;;;;;;;;;4979840;28;20404;-81
2023/12/11 09:28:53;;;;;;;7.40;3.13;;;;;;;;;;4979240;28;20511;-81
2023/12/11 09:31:19;;;;;;;7.95;2.38;;;;;;;;;;4979178;28;20698;-82
2023/12/11 09:33:46;;;;;;;10.45;1.90;;;;;;;;;;4979120;28;20219;-81
2023/12/11 09:36:11;;;;;;;9.57;1.90;;;;;;;;;;4978695;28;20180;-81
2023/12/11 09:38:37;;;;;;;11.57;2.77;;;;;;;;;;4978661;28;20220;-82
2023/12/11 09:41:06;;;;;;;14.52;2.38;;;;;;;;;;4978315;28;20412;-81
2023/12/11 09:43:32;;;;;;;6.53;2.42;;;;;;;;;;4979072;28;20200;-82
2023/12/11 09:45:59;;;;;;;15.50;2.40;;;;;;;;;;4977635;28;20263;-81
2023/12/11 09:48:25;;;;;;;9.75;3.38;;;;;;;;;;4979091;28;20188;-81
2023/12/11 09:50:51;;;;;;;10.13;2.70;;;;;;;;;;4978668;28;20250;-82
2023/12/11 09:53:18;;;;;;;10.00;2.87;;;;;;;;;;4978869;28;20172;-80
2023/12/11 09:55:45;;;;;;;8.65;3.55;;;;;;;;;;4978440;28;20399;-81
2023/12/11 09:58:11;;;;;;;10.10;3.05;;;;;;;;;;4981051;28;21194;-81
2023/12/11 10:00:37;;;;;;;10.98;3.90;;;;;;;;;;4978892;28;20267;-81
2023/12/11 10:03:05;;;;;;;7.28;2.50;;;;;;;;;;4978397;28;20184;-81
2023/12/11 10:05:33;;;;;;;15.68;3.75;;;;;;;;;;4978774;28;20274;-81
2023/12/11 10:08:00;;;;;;;8.95;2.60;;;;;;;;;;4978134;28;20215;-81
2023/12/11 10:10:31;;;;;;;12.48;2.60;;;;;;;;;;4978518;28;20259;-80
2023/12/11 10:12:58;;;;;;;6.05;2.20;;;;;;;;;;4978061;28;20181;-82
2023/12/11 10:15:28;;;;;;;13.93;3.47;;;;;;;;;;4977867;28;20287;-81
2023/12/11 10:18:04;;;;;;;5.97;2.13;;;;;;;;;;4978086;28;20670;-81
2023/12/11 10:20:31;;;;;;;11.32;3.50;;;;;;;;;;4978009;28;20184;-80
2023/12/11 10:22:57;;;;;;;6.88;1.90;;;;;;;;;;4977560;28;20544;-82
2023/12/11 10:25:24;;;;;;;14.43;2.38;;;;;;;;;;4977827;28;20192;-82
2023/12/11 10:27:50;;;;;;;8.00;2.28;;;;;;;;;;4978181;28;20168;-80
2023/12/11 10:30:18;;;;;;;6.30;2.10;;;;;;;;;;4976759;28;20191;-81
2023/12/11 10:32:44;;;;;;;11.18;2.58;;;;;;;;;;4977658;28;20499;-80
2023/12/11 10:35:22;;;;;;;14.02;2.63;;;;;;;;;;4976921;28;20601;-81
2023/12/11 10:37:48;;;;;;;8.30;2.67;;;;;;;;;;4977837;28;20168;-81
2023/12/11 10:40:14;;;;;;;15.60;3.03;;;;;;;;;;4977805;28;20180;-83
2023/12/11 10:42:41;;;;;;;11.70;2.80;;;;;;;;;;4983117;28;20408;-80
2023/12/11 10:45:07;;;;;;;13.30;3.17;;;;;;;;;;4980139;28;20415;-84
2023/12/11 10:47:34;;;;;;;11.75;2.63;;;;;;;;;;4977852;28;20195;-80
2023/12/11 10:50:02;;;;;;;9.70;2.53;;;;;;;;;;4992563;28;20189;-81
2023/12/11 10:52:28;;;;;;;10.20;2.53;;;;;;;;;;4977439;28;20692;-80
2023/12/11 10:54:55;;;;;;;7.30;3.25;;;;;;;;;;4977451;28;20303;-85
2023/12/11 10:57:22;;;;;;;16.95;2.63;;;;;;;;;;4980168;28;20184;-79
2023/12/11 10:59:51;;;;;;;8.48;2.78;;;;;;;;;;4980830;28;20195;-80
2023/12/11 11:02:18;;;;;;;7.13;2.65;;;;;;;;;;4977638;28;20192;-83
2023/12/11 11:04:45;;;;;;;12.38;3.13;;;;;;;;;;4977890;28;20188;-80
2023/12/11 11:07:13;;;;;;;11.60;3.20;;;;;;;;;;4977136;28;20224;-80
2023/12/11 11:09:49;;;;;;;8.85;3.22;;;;;;;;;;4978239;28;20537;-80
2023/12/11 11:12:28;;;;;;;13.18;3.40;;;;;;;;;;4977742;28;20191;-82
2023/12/11 11:14:55;;;;;;;11.95;2.38;;;;;;;;;;4977752;28;20659;-80
2023/12/11 11:17:21;;;;;;;13.82;3.28;;;;;;;;;;4977873;28;20271;-80
2023/12/11 11:20:06;;;;;;;7.00;2.37;;;;;;;;;;4977370;28;20215;-80
2023/12/11 11:22:31;;;;;;;15.60;3.30;;;;;;;;;;4977079;28;20400;-80
2023/12/11 11:24:57;;;;;;;12.53;2.30;;;;;;;;;;4977356;28;20192;-81
2023/12/11 11:27:44;;;;;;;9.57;3.10;;;;;;;;;;4977530;28;20411;-79
2023/12/11 11:30:10;;;;;;;7.43;1.98;;;;;;;;;;4977272;28;20435;-79
2023/12/11 11:32:52;;;;;;;11.55;3.00;;;;;;;;;;4977269;28;20187;-80
2023/12/11 11:35:59;;;;;;;11.95;3.00;;;;;;;;;;4976481;28;20200;-81
2023/12/11 11:38:44;;;;;;;13.02;3.13;;;;;;;;;;4955421;29;20579;-81
2023/12/11 11:41:20;;;;;;;8.32;2.15;;;;;;;;;;4939088;29;20641;-81
2023/12/11 11:43:54;;;;;;;7.82;3.15;;;;;;;;;;4970369;28;20191;-80
2023/12/11 11:46:20;;;;;;;7.53;2.65;;;;;;;;;;4976753;28;20583;-80
2023/12/11 11:48:46;;;;;;;10.70;2.70;;;;;;;;;;4977142;28;20186;-81
2023/12/11 11:51:14;;;;;;;13.77;3.47;;;;;;;;;;4976815;28;20919;-81
2023/12/11 11:53:40;;;;;;;16.13;2.92;;;;;;;;;;4977328;28;20458;-80
2023/12/11 11:56:07;;;;;;;5.80;2.30;;;;;;;;;;4976551;28;20181;-80
2023/12/11 11:58:33;;;;;;;12.32;2.55;;;;;;;;;;4977162;28;20176;-80
2023/12/11 12:01:05;;;;;;;12.07;3.40;;;;;;;;;;4976670;28;20640;-83
2023/12/11 12:03:41;;;;;;;10.05;2.92;;;;;;;;;;4976920;28;20507;-81
2023/12/11 12:06:07;;;;;;;7.40;2.20;;;;;;;;;;4976464;28;20538;-81
2023/12/11 12:08:36;;;;;;;9.85;2.67;;;;;;;;;;4976891;28;20234;-80
2023/12/11 12:11:02;;;;;;;7.85;2.28;;;;;;;;;;4976480;28;20278;-83
2023/12/11 12:13:32;;;;;;;10.70;2.90;;;;;;;;;;4976362;28;20215;-82
2023/12/11 12:15:58;;;;;;;10.98;2.80;;;;;;;;;;4976720;28;20473;-81
2023/12/11 12:18:24;;;;;;;12.33;2.63;;;;;;;;;;4977080;28;20610;-82
2023/12/11 12:21:06;;;;;;;13.40;3.40;;;;;;;;;;4976600;28;20442;-83
2023/12/11 12:23:32;;;;;;;10.15;2.85;;;;;;;;;;4976894;28;20503;-82
2023/12/11 12:25:59;;;;;;;13.80;4.47;;;;;;;;;;4976969;28;20653;-81
2023/12/11 12:28:26;;;;;;;16.73;5.05;;;;;;;;;;4976485;28;20579;-82
2023/12/11 12:30:52;;;;;;;12.10;2.58;;;;;;;;;;4977328;28;20169;-81
2023/12/11 12:33:19;;;;;;;11.02;2.28;;;;;;;;;;4976789;28;20238;-85
2023/12/11 12:35:46;;;;;;;13.90;3.60;;;;;;;;;;4977225;28;20235;-81
2023/12/11 12:38:13;;;;;;;16.02;3.08;;;;;;;;;;4977095;28;20208;-82
2023/12/11 12:40:39;;;;;;;18.15;3.28;;;;;;;;;;4976655;28;20168;-82
2023/12/11 12:43:14;;;;;;;9.73;2.77;;;;;;;;;;4976093;28;20176;-84
2023/12/11 12:45:40;;;;;;;17.55;2.92;;;;;;;;;;4976016;28;20403;-85
2023/12/11 12:48:08;;;;;;;15.45;2.90;;;;;;;;;;4978345;28;20176;-87
2023/12/11 12:50:34;;;;;;;9.75;2.33;;;;;;;;;;4978845;28;20176;-85
2023/12/11 12:53:04;;;;;;;7.00;2.78;;;;;;;;;;4978525;28;20231;-87
2023/12/11 12:55:30;;;;;;;9.60;2.40;;;;;;;;;;4978306;28;20212;-87
2023/12/11 12:57:57;;;;;;;10.00;2.80;;;;;;;;;;4978296;28;20534;-88
2023/12/11 13:00:23;;;;;;;10.85;2.40;;;;;;;;;;4978514;28;20439;-89
2023/12/11 13:02:50;;;;;;;11.25;2.70;;;;;;;;;;4978115;28;20539;-88
2023/12/11 13:05:16;;;;;;;9.93;3.10;;;;;;;;;;4977735;28;20192;-89
2023/12/11 13:07:44;;;;;;;10.98;2.55;;;;;;;;;;4978266;28;20282;-88
2023/12/11 13:10:10;;;;;;;15.88;3.08;;;;;;;;;;4978274;28;20256;-88
2023/12/11 13:12:37;;;;;;;7.88;2.33;;;;;;;;;;4978160;28;20172;-88
2023/12/11 13:15:04;;;;;;;10.35;2.72;;;;;;;;;;4978056;28;20606;-93
2023/12/11 13:17:30;;;;;;;6.93;1.67;;;;;;;;;;4978122;28;20212;-87
2023/12/11 13:19:56;;;;;;;7.00;2.85;;;;;;;;;;4976862;28;20184;-87
2023/12/11 13:22:22;;;;;;;8.55;1.65;;;;;;;;;;4977871;28;20184;-87
2023/12/11 13:24:48;;;;;;;2.63;1.58;;;;;;;;;;4978341;28;20612;-87
2023/12/11 13:27:15;;;;;;;5.17;1.40;;;;;;;;;;4977809;28;20187;-87
2023/12/11 13:29:41;;;;;;;3.95;1.40;;;;;;;;;;4978057;28;20834;-85
2023/12/11 13:32:07;;;;;;;4.15;1.40;;;;;;;;;;4977821;28;20187;-86
2023/12/11 13:34:33;;;;;;;4.10;1.60;;;;;;;;;;4977880;28;20215;-85
2023/12/11 13:36:59;;;;;;;3.13;0.93;;;;;;;;;;4978032;28;20187;-87
2023/12/11 13:39:25;;;;;;;2.70;1.07;;;;;;;;;;4977639;28;20404;-86
2023/12/11 13:41:51;;;;;;;2.40;1.17;;;;;;;;;;4992239;28;21019;-87
2023/12/11 13:44:17;;;;;;;4.93;1.60;;;;;;;;;;4976106;28;20286;-86
2023/12/11 13:46:42;;;;;;;5.07;1.23;;;;;;;;;;4993095;28;20411;-86
2023/12/11 13:49:08;;;;;;;2.60;1.33;;;;;;;;;;4977831;28;20858;-86
2023/12/11 13:51:34;;;;;;;3.30;1.30;;;;;;;;;;4977579;28;20407;-86
2023/12/11 13:54:00;;;;;;;3.10;1.40;;;;;;;;;;4977424;28;20466;-86
2023/12/11 13:56:27;;;;;;;5.97;1.43;;;;;;;;;;4992420;28;20763;-85
2023/12/11 13:58:53;;;;;;;1.63;1.13;;;;;;;;;;4976588;28;20898;-85
2023/12/11 14:01:20;;;;;;;1.58;1.30;;;;;;;;;;4977287;28;20173;-85
2023/12/11 14:03:45;;;;;;;2.77;1.60;;;;;;;;;;4977564;28;20184;-85
2023/12/11 14:06:13;;;;;;;2.73;1.37;;;;;;;;;;4977084;28;20420;-86
2023/12/11 14:08:39;;;;;;;5.10;1.95;;;;;;;;;;4977341;28;20518;-83
2023/12/11 14:11:05;;;;;;;4.75;1.40;;;;;;;;;;4977139;28;20183;-83
2023/12/11 14:13:31;;;;;;;3.83;0.85;;;;;;;;;;4977359;28;20176;-83
2023/12/11 14:15:58;;;;;;;2.85;1.80;;;;;;;;;;4977122;28;20179;-83
2023/12/11 14:18:25;;;;;;;2.80;1.35;;;;;;;;;;4975734;28;20210;-83
2023/12/11 14:20:51;;;;;;;5.10;1.42;;;;;;;;;;4976832;28;20652;-83
2023/12/11 14:23:18;;;;;;;4.38;1.35;;;;;;;;;;4977704;28;20192;-83
2023/12/11 14:25:44;;;;;;;3.75;1.65;;;;;;;;;;4977161;28;20189;-84
2023/12/11 14:28:10;;;;;;;5.15;1.40;;;;;;;;;;4976789;28;20176;-84
2023/12/11 14:30:37;;;;;;;5.50;1.73;;;;;;;;;;4976944;28;20180;-83